Time;durP1;ratioP1;P1;durP2;ratioP2;P2;SDS_P1;SDS_P2;PMS_P1;PMS_P2;Temp;Humidity;BMP_temperature;BMP_pressure;BME280_temperature;BME280_humidity;BME280_pressure;Samples;Min_cycle;Max_cycle;Signal;HPM_P1;HPM_P2
2022/10/30 00:00:38;;;;;;;15.50;6.47;;;10.80;67.90;;;;;;4980739;28;46609;-67
2022/10/30 00:03:04;;;;;;;10.23;6.00;;;10.80;68.90;;;;;;4980916;28;47945;-67
2022/10/30 00:05:30;;;;;;;21.23;5.80;;;10.80;68.90;;;;;;4964971;28;46350;-67
2022/10/30 00:07:56;;;;;;;16.23;6.60;;;10.70;68.80;;;;;;4964785;28;46652;-67
2022/10/30 00:10:22;;;;;;;18.03;7.33;;;10.80;68.00;;;;;;4979868;28;46306;-67
2022/10/30 00:12:48;;;;;;;22.00;5.50;;;10.70;68.90;;;;;;4964658;28;48869;-67
2022/10/30 00:15:14;;;;;;;18.53;6.10;;;10.70;69.00;;;;;;4967191;28;46321;-67
2022/10/30 00:17:40;;;;;;;10.77;6.37;;;10.70;69.10;;;;;;4966161;28;46396;-67
2022/10/30 00:20:07;;;;;;;14.90;6.40;;;10.70;68.20;;;;;;4983833;28;47281;-67
2022/10/30 00:22:34;;;;;;;15.40;6.00;;;10.70;69.10;;;;;;4958920;28;46691;-67
2022/10/30 00:25:00;;;;;;;18.77;8.53;;;10.80;69.10;;;;;;4984490;28;46237;-68
2022/10/30 00:27:26;;;;;;;16.30;7.83;;;10.80;69.00;;;;;;4988686;28;46265;-67
2022/10/30 00:29:52;;;;;;;17.00;6.60;;;10.80;68.00;;;;;;4984914;28;46341;-67
2022/10/30 00:32:18;;;;;;;22.03;7.27;;;10.80;69.00;;;;;;4967465;28;47868;-67
2022/10/30 00:34:43;;;;;;;19.03;7.30;;;10.90;69.00;;;;;;4966169;28;46481;-67
2022/10/30 00:37:09;;;;;;;18.13;7.20;;;10.80;69.00;;;;;;4968583;28;46514;-67
2022/10/30 00:39:35;;;;;;;15.30;8.37;;;10.90;68.20;;;;;;4983445;28;46705;-67
2022/10/30 00:42:00;;;;;;;12.50;6.00;;;10.90;69.20;;;;;;4982804;28;48354;-67
2022/10/30 00:44:47;;;;;;;19.13;6.90;;;10.80;69.10;;;;;;4983132;28;46444;-67
2022/10/30 00:47:22;;;;;;;16.10;5.50;;;10.70;69.50;;;;;;4983134;28;46856;-67
2022/10/30 00:50:14;;;;;;;13.47;4.50;;;10.60;68.60;;;;;;4966818;28;46429;-67
2022/10/30 00:53:11;;;;;;;13.77;4.57;;;10.60;69.60;;;;;;4954245;28;47950;-67
2022/10/30 00:55:51;;;;;;;14.10;4.73;;;10.60;69.70;;;;;;4938176;28;46416;-67
2022/10/30 00:58:21;;;;;;;17.03;5.13;;;10.50;69.40;;;;;;4967369;28;46436;-67
2022/10/30 01:00:52;;;;;;;11.70;4.60;;;10.50;68.60;;;;;;4959385;28;46677;-67
2022/10/30 01:03:20;;;;;;;10.80;5.20;;;10.40;69.50;;;;;;4982469;28;46358;-67
2022/10/30 01:05:51;;;;;;;16.57;4.87;;;10.40;69.40;;;;;;4982677;28;46555;-67
2022/10/30 01:08:17;;;;;;;10.93;4.40;;;10.40;69.60;;;;;;4982124;28;46414;-67
2022/10/30 01:10:43;;;;;;;18.17;4.33;;;10.30;68.60;;;;;;4981734;28;46390;-67
2022/10/30 01:13:09;;;;;;;20.33;5.20;;;10.20;69.60;;;;;;4964510;28;48055;-67
2022/10/30 01:15:40;;;;;;;7.50;4.40;;;10.20;69.80;;;;;;4981133;28;46453;-67
2022/10/30 01:18:41;;;;;;;12.67;4.50;;;10.10;69.90;;;;;;4963557;28;45807;-67
2022/10/30 01:21:19;;;;;;;11.80;4.10;;;10.00;68.80;;;;;;4933161;28;45880;-67
2022/10/30 01:23:45;;;;;;;15.47;4.83;;;10.00;69.70;;;;;;4980396;28;46868;-68
2022/10/30 01:26:25;;;;;;;12.63;4.20;;;10.00;69.80;;;;;;4965762;28;46706;-68
2022/10/30 01:29:12;;;;;;;8.00;4.53;;;10.00;69.70;;;;;;4959693;28;46446;-68
2022/10/30 01:31:56;;;;;;;16.67;4.87;;;9.90;69.60;;;;;;4960466;28;46629;-71
2022/10/30 01:35:11;;;;;;;12.93;5.50;;;9.90;70.60;;;;;;4983560;28;47776;-69
2022/10/30 01:37:56;;;;;;;12.67;4.47;;;9.90;70.50;;;;;;4942276;28;46545;-68
2022/10/30 01:40:21;;;;;;;15.47;5.30;;;9.90;69.50;;;;;;4965962;28;46313;-68
2022/10/30 01:42:58;;;;;;;11.17;4.80;;;9.90;70.50;;;;;;4983343;28;46053;-68
2022/10/30 01:45:46;;;;;;;13.80;4.70;;;9.80;70.60;;;;;;4982998;28;47658;-68
2022/10/30 01:48:42;;;;;;;19.13;5.77;;;9.80;70.80;;;;;;4966733;28;46390;-68
2022/10/30 01:51:18;;;;;;;19.53;4.90;;;9.80;69.70;;;;;;4982062;28;46364;-69
2022/10/30 01:53:44;;;;;;;17.50;4.67;;;9.90;70.80;;;;;;4982278;28;46407;-69
2022/10/30 01:56:42;;;;;;;14.03;5.00;;;9.90;70.60;;;;;;4981490;28;46664;-68
2022/10/30 01:59:32;;;;;;;15.67;6.67;;;9.90;69.50;;;;;;4928084;28;46581;-69
2022/10/30 02:01:58;;;;;;;16.10;4.30;;;9.80;70.30;;;;;;4944452;28;45860;-68
2022/10/30 02:04:25;;;;;;;15.10;5.00;;;9.90;70.40;;;;;;4964697;28;46728;-68
2022/10/30 02:06:51;;;;;;;9.87;4.73;;;9.90;70.40;;;;;;4980450;28;47465;-69
2022/10/30 02:09:17;;;;;;;8.77;4.87;;;9.80;69.40;;;;;;4980773;28;46424;-68
2022/10/30 02:11:45;;;;;;;13.47;4.50;;;9.80;70.40;;;;;;4963888;28;46412;-69
2022/10/30 02:14:12;;;;;;;7.53;4.03;;;9.80;70.50;;;;;;4981832;28;46653;-68
2022/10/30 02:16:43;;;;;;;7.57;4.00;;;9.70;70.50;;;;;;4963234;28;47870;-68
2022/10/30 02:19:09;;;;;;;12.60;4.50;;;9.70;69.80;;;;;;4980630;28;46537;-69
2022/10/30 02:21:35;;;;;;;15.23;5.00;;;9.70;70.70;;;;;;4979647;28;46357;-68
2022/10/30 02:24:00;;;;;;;12.57;4.73;;;9.60;70.80;;;;;;4982965;28;46727;-68
2022/10/30 02:26:26;;;;;;;13.80;4.80;;;9.60;70.70;;;;;;4979932;28;48263;-68
2022/10/30 02:28:52;;;;;;;16.40;4.90;;;9.60;70.70;;;;;;4965089;28;45917;-69
2022/10/30 02:31:18;;;;;;;12.73;4.13;;;9.60;69.70;;;;;;4980181;28;46476;-68
2022/10/30 02:33:45;;;;;;;8.47;4.20;;;9.50;70.60;;;;;;4981262;28;46434;-68
2022/10/30 02:36:11;;;;;;;11.80;5.17;;;9.50;70.50;;;;;;4963236;28;46758;-68
2022/10/30 02:38:37;;;;;;;11.60;4.17;;;9.50;70.60;;;;;;4963431;28;46430;-69
2022/10/30 02:41:02;;;;;;;17.40;5.63;;;9.60;69.60;;;;;;4963444;28;46507;-69
2022/10/30 02:43:28;;;;;;;14.20;4.93;;;9.60;70.60;;;;;;4964803;28;45941;-69
2022/10/30 02:45:54;;;;;;;11.37;4.07;;;9.50;70.40;;;;;;4984200;28;46540;-68
2022/10/30 02:48:20;;;;;;;13.00;4.93;;;9.50;70.50;;;;;;4962235;28;46354;-68
2022/10/30 02:50:45;;;;;;;7.20;3.53;;;9.50;69.50;;;;;;4979077;28;46486;-70
2022/10/30 02:53:11;;;;;;;16.93;4.90;;;9.50;70.60;;;;;;4980152;28;46267;-68
2022/10/30 02:55:36;;;;;;;10.03;4.40;;;9.40;69.50;;;;;;4980219;28;48092;-68
2022/10/30 02:58:02;;;;;;;10.87;4.13;;;9.40;70.60;;;;;;4962950;28;46424;-69
2022/10/30 03:00:28;;;;;;;13.20;4.53;;;9.40;69.60;;;;;;4981946;28;46243;-68
2022/10/30 03:02:55;;;;;;;17.67;4.40;;;9.40;70.50;;;;;;4980387;28;45968;-69
2022/10/30 03:05:21;;;;;;;13.27;4.40;;;9.40;70.50;;;;;;4962779;28;48109;-69
2022/10/30 03:07:47;;;;;;;18.30;5.60;;;9.50;70.50;;;;;;4962890;28;46492;-69
2022/10/30 03:10:13;;;;;;;17.70;5.00;;;9.70;69.50;;;;;;4979363;28;46339;-69
2022/10/30 03:12:39;;;;;;;19.33;5.70;;;9.70;70.50;;;;;;4978701;28;46619;-68
2022/10/30 03:15:05;;;;;;;14.43;4.63;;;9.70;70.40;;;;;;4981322;28;46546;-68
2022/10/30 03:17:31;;;;;;;10.03;4.27;;;9.70;70.40;;;;;;4979882;28;46591;-67
2022/10/30 03:19:57;;;;;;;9.03;5.10;;;9.60;69.70;;;;;;4964067;28;46445;-68
2022/10/30 03:22:23;;;;;;;16.93;3.97;;;9.50;70.80;;;;;;4963154;28;46328;-67
2022/10/30 03:24:48;;;;;;;9.90;4.93;;;9.40;71.00;;;;;;4977678;28;48934;-69
2022/10/30 03:27:14;;;;;;;9.50;3.90;;;9.30;70.00;;;;;;4980201;28;45910;-69
2022/10/30 03:29:39;;;;;;;33.17;4.77;;;9.20;70.20;;;;;;4980201;28;46445;-67
2022/10/30 03:32:11;;;;;;;26.13;4.50;;;9.20;71.30;;;;;;4964059;28;46353;-68
2022/10/30 03:34:37;;;;;;;9.93;4.00;;;9.20;71.20;;;;;;4980559;28;46428;-68
2022/10/30 03:37:03;;;;;;;16.53;4.67;;;9.10;71.10;;;;;;4962675;28;46380;-70
2022/10/30 03:39:29;;;;;;;11.53;4.73;;;9.20;69.90;;;;;;4979664;28;46338;-69
2022/10/30 03:41:55;;;;;;;11.93;4.07;;;9.20;70.80;;;;;;4980544;28;46457;-67
2022/10/30 03:44:21;;;;;;;21.50;5.43;;;9.20;70.80;;;;;;4962782;28;48071;-68
2022/10/30 03:46:46;;;;;;;8.00;5.07;;;9.30;70.70;;;;;;4981554;28;46347;-67
2022/10/30 03:49:12;;;;;;;9.97;4.23;;;9.30;69.50;;;;;;4982931;28;46335;-69
2022/10/30 03:51:38;;;;;;;11.50;4.40;;;9.30;70.40;;;;;;4965726;28;46596;-67
2022/10/30 03:54:03;;;;;;;11.37;4.00;;;9.40;70.50;;;;;;4982620;28;48250;-67
2022/10/30 03:56:29;;;;;;;8.97;4.27;;;9.30;70.40;;;;;;4966646;28;46453;-68
2022/10/30 03:58:55;;;;;;;15.53;3.50;;;9.80;71.00;;;;;;4987116;28;46352;-68
2022/10/30 04:01:20;;;;;;;10.40;3.97;;;9.20;69.70;;;;;;4978666;28;46711;-68
2022/10/30 04:03:46;;;;;;;12.70;4.07;;;9.10;70.90;;;;;;4968147;28;46759;-67
2022/10/30 04:06:12;;;;;;;8.40;3.73;;;9.10;70.80;;;;;;4985504;28;46460;-67
2022/10/30 04:08:38;;;;;;;9.00;3.90;;;9.10;70.80;;;;;;4965970;28;46394;-67
2022/10/30 04:11:04;;;;;;;15.43;4.87;;;9.10;69.70;;;;;;4983819;28;46597;-67
2022/10/30 04:13:29;;;;;;;9.67;4.70;;;9.10;70.60;;;;;;4966103;28;47450;-67
2022/10/30 04:15:55;;;;;;;11.93;4.70;;;9.10;70.40;;;;;;4966238;28;46492;-67
2022/10/30 04:18:21;;;;;;;14.50;5.63;;;9.10;70.30;;;;;;4982750;28;46447;-67
2022/10/30 04:20:47;;;;;;;18.67;5.20;;;9.20;69.30;;;;;;4983577;28;46683;-67
2022/10/30 04:23:16;;;;;;;10.83;4.27;;;9.20;70.30;;;;;;4967988;28;48098;-66
2022/10/30 04:25:42;;;;;;;15.23;5.07;;;9.30;70.40;;;;;;4982179;28;46515;-67
2022/10/30 04:28:08;;;;;;;19.27;5.50;;;9.30;70.50;;;;;;4967636;28;46435;-67
2022/10/30 04:30:37;;;;;;;17.20;4.23;;;9.30;69.50;;;;;;4984572;28;46364;-67
2022/10/30 04:33:10;;;;;;;19.20;4.30;;;9.20;70.50;;;;;;4966076;28;47992;-67
2022/10/30 04:35:36;;;;;;;14.10;4.30;;;9.00;70.90;;;;;;4982895;28;46214;-67
2022/10/30 04:38:07;;;;;;;11.60;3.90;;;8.90;71.20;;;;;;4965828;28;46419;-67
2022/10/30 04:40:37;;;;;;;13.40;4.90;;;8.90;70.20;;;;;;4982716;28;46297;-67
2022/10/30 04:43:03;;;;;;;11.37;4.10;;;8.90;71.30;;;;;;4966235;28;48689;-67
2022/10/30 04:45:29;;;;;;;9.70;3.97;;;8.80;71.40;;;;;;4966665;28;46352;-67
2022/10/30 04:48:10;;;;;;;10.10;5.07;;;8.70;71.60;;;;;;4966165;28;45922;-67
2022/10/30 04:50:36;;;;;;;26.97;4.97;;;8.80;70.50;;;;;;4982711;28;46388;-67
2022/10/30 04:53:11;;;;;;;14.00;5.10;;;8.80;71.40;;;;;;4983811;28;46490;-67
2022/10/30 04:55:37;;;;;;;16.30;5.20;;;8.80;71.10;;;;;;4966033;28;46435;-67
2022/10/30 04:58:03;;;;;;;16.10;5.67;;;8.90;71.00;;;;;;4965310;28;46428;-66
2022/10/30 05:00:30;;;;;;;15.03;4.87;;;9.00;69.90;;;;;;4983639;28;46020;-67
2022/10/30 05:03:00;;;;;;;19.70;5.23;;;9.00;70.80;;;;;;4981207;28;48062;-67
2022/10/30 05:05:26;;;;;;;15.57;4.60;;;9.00;70.60;;;;;;4983306;28;46579;-67
2022/10/30 05:07:52;;;;;;;12.97;4.67;;;9.10;70.60;;;;;;4983542;28;46487;-66
2022/10/30 05:10:18;;;;;;;21.67;6.20;;;9.10;69.60;;;;;;4980832;28;46821;-67
2022/10/30 05:12:44;;;;;;;13.37;4.70;;;9.10;70.60;;;;;;4983070;28;46484;-68
2022/10/30 05:15:11;;;;;;;13.00;5.10;;;9.10;70.70;;;;;;4982412;28;46553;-67
2022/10/30 05:17:38;;;;;;;13.30;4.70;;;9.10;70.60;;;;;;4985479;28;46434;-66
2022/10/30 05:20:04;;;;;;;10.57;4.70;;;9.10;69.50;;;;;;4966828;28;46606;-67
2022/10/30 05:22:30;;;;;;;14.40;4.20;;;9.10;70.50;;;;;;4962764;28;48279;-67
2022/10/30 05:24:56;;;;;;;16.67;4.00;;;9.10;70.40;;;;;;4965112;28;46376;-67
2022/10/30 05:27:21;;;;;;;15.80;4.77;;;10.00;70.10;;;;;;4984226;28;46348;-67
2022/10/30 05:29:47;;;;;;;18.10;4.70;;;9.20;69.40;;;;;;4982848;28;46448;-67
2022/10/30 05:32:13;;;;;;;18.60;4.93;;;9.20;70.40;;;;;;4966414;28;47704;-67
2022/10/30 05:34:38;;;;;;;14.37;4.23;;;9.20;70.30;;;;;;4982300;28;46437;-67
2022/10/30 05:37:04;;;;;;;12.70;4.80;;;9.20;70.20;;;;;;4981345;28;46342;-67
2022/10/30 05:39:30;;;;;;;11.90;5.10;;;9.30;69.10;;;;;;4981080;28;45958;-67
2022/10/30 05:41:55;;;;;;;16.70;4.70;;;9.30;70.20;;;;;;4981391;28;48956;-67
2022/10/30 05:44:21;;;;;;;18.70;4.50;;;9.30;70.20;;;;;;4981710;28;46285;-67
2022/10/30 05:46:47;;;;;;;10.73;5.00;;;9.30;70.40;;;;;;4982317;28;46497;-67
2022/10/30 05:49:12;;;;;;;15.70;5.33;;;9.10;69.80;;;;;;4979371;28;46391;-67
2022/10/30 05:51:38;;;;;;;11.77;3.90;;;9.10;70.70;;;;;;4982545;28;46675;-67
2022/10/30 05:54:04;;;;;;;6.20;3.50;;;9.00;70.80;;;;;;4965399;28;46338;-67
2022/10/30 05:56:29;;;;;;;7.27;3.57;;;9.00;70.90;;;;;;4965327;28;46292;-67
2022/10/30 05:58:55;;;;;;;8.80;4.00;;;8.90;71.10;;;;;;4979941;28;46463;-67
2022/10/30 06:01:21;;;;;;;11.53;3.40;;;8.90;70.00;;;;;;4959424;28;48026;-67
2022/10/30 06:03:47;;;;;;;12.03;3.53;;;8.90;71.20;;;;;;4983489;28;46432;-67
2022/10/30 06:06:12;;;;;;;15.40;4.70;;;8.90;71.10;;;;;;4961784;28;46362;-67
2022/10/30 06:08:38;;;;;;;12.20;4.47;;;8.90;71.10;;;;;;4980991;28;45945;-67
2022/10/30 06:11:03;;;;;;;9.83;3.23;;;9.00;69.70;;;;;;4978321;28;46922;-67
2022/10/30 06:13:29;;;;;;;20.13;4.10;;;9.10;70.80;;;;;;4982464;28;46465;-67
2022/10/30 06:15:56;;;;;;;15.73;5.10;;;9.10;70.80;;;;;;4963692;28;46384;-67
2022/10/30 06:18:22;;;;;;;17.10;4.43;;;9.10;70.50;;;;;;4965177;28;46451;-67
2022/10/30 06:20:48;;;;;;;19.77;5.40;;;9.30;69.40;;;;;;4980720;28;48080;-67
2022/10/30 06:23:14;;;;;;;10.90;4.33;;;9.30;70.30;;;;;;4963032;28;46621;-67
2022/10/30 06:25:39;;;;;;;12.17;4.50;;;9.40;70.00;;;;;;4983675;28;46317;-68
2022/10/30 06:28:05;;;;;;;10.77;5.43;;;9.50;70.00;;;;;;4965272;28;45868;-67
2022/10/30 06:30:32;;;;;;;11.43;3.90;;;9.60;68.80;;;;;;4981988;28;47957;-68
2022/10/30 06:32:58;;;;;;;22.10;4.57;;;9.70;69.70;;;;;;4980169;28;46470;-68
2022/10/30 06:35:24;;;;;;;15.23;4.73;;;9.90;69.40;;;;;;4965917;28;46358;-67
2022/10/30 06:37:50;;;;;;;7.43;3.90;;;10.00;67.20;;;;;;4980846;28;46460;-69
2022/10/30 06:40:16;;;;;;;10.57;3.83;;;10.10;68.10;;;;;;4963747;28;47819;-68
2022/10/30 06:42:47;;;;;;;12.23;4.33;;;10.20;68.20;;;;;;4963742;28;46309;-69
2022/10/30 06:45:14;;;;;;;14.33;4.27;;;10.30;67.90;;;;;;4980224;28;46355;-67
2022/10/30 06:47:40;;;;;;;9.80;3.30;;;10.40;67.80;;;;;;4953783;28;46492;-70
2022/10/30 06:50:08;;;;;;;12.17;4.47;;;10.60;66.60;;;;;;4963168;28;46505;-68
2022/10/30 06:52:34;;;;;;;11.90;4.70;;;10.70;67.50;;;;;;4980033;28;46388;-69
2022/10/30 06:55:00;;;;;;;19.03;4.23;;;10.80;67.40;;;;;;4963719;28;46266;-68
2022/10/30 06:57:26;;;;;;;19.20;3.93;;;10.90;67.00;;;;;;4981032;28;46221;-67
2022/10/30 06:59:51;;;;;;;12.00;3.77;;;11.00;65.80;;;;;;4962329;28;47439;-68
2022/10/30 07:02:17;;;;;;;15.90;3.60;;;11.00;67.00;;;;;;4979525;28;46468;-68
2022/10/30 07:04:44;;;;;;;14.93;3.90;;;11.00;67.10;;;;;;4964565;28;46291;-69
2022/10/30 07:07:13;;;;;;;11.90;5.00;;;11.10;67.10;;;;;;4963906;28;46369;-68
2022/10/30 07:09:39;;;;;;;10.40;3.57;;;11.20;66.10;;;;;;4980060;28;47761;-71
2022/10/30 07:12:06;;;;;;;10.47;4.03;;;11.20;67.20;;;;;;4961981;28;46413;-68
2022/10/30 07:14:31;;;;;;;13.30;4.27;;;11.30;67.00;;;;;;4964576;28;46324;-68
2022/10/30 07:16:57;;;;;;;12.97;4.77;;;11.40;67.00;;;;;;4982084;28;46377;-69
2022/10/30 07:19:23;;;;;;;12.10;4.00;;;11.60;66.10;;;;;;4979734;28;48044;-68
2022/10/30 07:21:49;;;;;;;9.90;4.03;;;11.60;67.00;;;;;;4979428;28;46419;-68
2022/10/30 07:24:15;;;;;;;10.63;4.30;;;11.70;66.80;;;;;;4966448;28;46388;-68
2022/10/30 07:26:40;;;;;;;8.63;4.13;;;11.80;66.60;;;;;;4965713;28;46357;-67
2022/10/30 07:29:06;;;;;;;8.87;3.90;;;11.90;66.60;;;;;;4961724;28;47341;-69
2022/10/30 07:31:32;;;;;;;13.77;4.03;;;11.90;65.20;;;;;;4981583;28;46487;-68
2022/10/30 07:33:58;;;;;;;16.47;4.30;;;12.00;66.40;;;;;;4985198;28;46615;-68
2022/10/30 07:36:24;;;;;;;12.27;4.10;;;12.20;66.40;;;;;;4984800;28;46392;-68
2022/10/30 07:38:51;;;;;;;12.20;4.10;;;12.30;66.50;;;;;;4967119;28;49306;-68
2022/10/30 07:41:18;;;;;;;17.70;4.30;;;12.40;65.60;;;;;;4984165;28;46360;-67
2022/10/30 07:43:45;;;;;;;13.10;4.03;;;12.50;66.60;;;;;;4965130;28;46500;-69
2022/10/30 07:46:11;;;;;;;17.47;3.90;;;12.60;66.60;;;;;;4983096;28;46308;-69
2022/10/30 07:48:37;;;;;;;14.73;5.20;;;12.60;66.70;;;;;;4984365;28;46688;-68
2022/10/30 07:51:03;;;;;;;15.40;4.40;;;12.60;65.80;;;;;;4966926;28;46315;-67
2022/10/30 07:53:28;;;;;;;14.57;3.60;;;12.70;66.60;;;;;;4982716;28;46418;-68
2022/10/30 07:55:55;;;;;;;11.73;3.93;;;12.80;66.30;;;;;;4983580;28;46462;-67
2022/10/30 07:58:20;;;;;;;20.63;4.60;;;12.90;66.50;;;;;;4965578;28;47922;-67
2022/10/30 08:00:46;;;;;;;13.27;4.70;;;13.10;65.60;;;;;;4966201;28;46458;-68
2022/10/30 08:03:13;;;;;;;16.03;6.80;;;13.20;66.40;;;;;;4982955;28;46428;-68
2022/10/30 08:05:38;;;;;;;12.80;4.97;;;13.30;66.20;;;;;;4983846;28;46622;-68
2022/10/30 08:08:04;;;;;;;11.63;4.97;;;13.50;65.90;;;;;;4985729;28;46672;-69
2022/10/30 08:10:31;;;;;;;12.27;4.10;;;13.70;64.70;;;;;;4983715;28;46316;-69
2022/10/30 08:12:57;;;;;;;9.13;4.73;;;13.80;65.80;;;;;;4984393;28;46416;-68
2022/10/30 08:15:23;;;;;;;11.57;4.17;;;13.90;65.60;;;;;;4982823;28;45952;-69
2022/10/30 08:17:49;;;;;;;17.50;4.40;;;14.10;65.40;;;;;;4966386;28;46598;-69
2022/10/30 08:20:18;;;;;;;16.10;4.50;;;14.30;64.20;;;;;;4982826;28;46357;-69
2022/10/30 08:23:04;;;;;;;8.43;4.20;;;14.30;65.20;;;;;;4966719;28;46388;-69
2022/10/30 08:25:30;;;;;;;14.73;4.17;;;14.40;65.20;;;;;;4981137;28;46428;-69
2022/10/30 08:28:01;;;;;;;9.97;3.60;;;14.50;65.30;;;;;;4966147;28;48430;-70
2022/10/30 08:30:30;;;;;;;9.70;4.03;;;14.70;64.40;;;;;;4964404;28;46326;-68
2022/10/30 08:33:08;;;;;;;18.90;4.70;;;14.70;65.30;;;;;;4983087;28;46332;-69
2022/10/30 08:35:34;;;;;;;15.53;4.80;;;14.90;65.20;;;;;;4983666;28;46352;-70
2022/10/30 08:38:01;;;;;;;12.23;4.97;;;15.00;65.10;;;;;;4966331;28;46393;-68
2022/10/30 08:40:27;;;;;;;18.60;4.83;;;15.30;63.70;;;;;;4981585;28;46433;-68
2022/10/30 08:42:54;;;;;;;11.77;4.77;;;15.40;63.60;;;;;;4966049;28;46477;-68
2022/10/30 08:45:21;;;;;;;15.67;5.50;;;15.50;64.30;;;;;;4967306;28;46625;-67
2022/10/30 08:47:47;;;;;;;12.70;3.70;;;15.70;64.10;;;;;;4983426;28;47223;-68
2022/10/30 08:50:13;;;;;;;27.13;6.20;;;15.80;63.80;;;;;;4983518;28;46397;-67
2022/10/30 08:52:39;;;;;;;13.87;4.87;;;16.00;63.50;;;;;;4982010;28;46683;-67
2022/10/30 08:55:05;;;;;;;16.33;4.63;;;16.10;63.40;;;;;;4982526;28;46425;-68
2022/10/30 08:57:35;;;;;;;22.10;4.50;;;16.20;62.90;;;;;;4959708;28;48582;-68
2022/10/30 09:00:02;;;;;;;13.10;6.77;;;16.40;61.50;;;;;;4966779;28;46412;-70
2022/10/30 09:02:27;;;;;;;15.60;4.87;;;16.50;62.60;;;;;;4965028;28;46317;-67
2022/10/30 09:04:53;;;;;;;11.10;5.10;;;16.60;62.60;;;;;;4965613;28;46309;-68
2022/10/30 09:07:19;;;;;;;15.03;3.93;;;16.70;62.30;;;;;;4964973;28;48076;-68
2022/10/30 09:09:44;;;;;;;16.27;4.50;;;16.90;62.10;;;;;;4981405;28;46514;-67
2022/10/30 09:12:10;;;;;;;14.93;4.40;;;17.00;61.80;;;;;;4961145;28;46565;-68
2022/10/30 09:14:36;;;;;;;16.90;3.87;;;17.20;61.50;;;;;;4983333;28;46534;-67
2022/10/30 09:17:02;;;;;;;8.97;3.63;;;17.30;61.10;;;;;;4981890;28;46581;-68
2022/10/30 09:19:27;;;;;;;17.90;5.13;;;17.40;60.80;;;;;;4984422;28;46326;-67
2022/10/30 09:21:53;;;;;;;17.00;6.70;;;17.50;60.70;;;;;;4966124;28;46303;-68
2022/10/30 09:24:19;;;;;;;12.87;4.17;;;17.60;61.60;;;;;;4982044;28;46519;-68
2022/10/30 09:26:45;;;;;;;16.07;4.57;;;17.70;60.00;;;;;;4981922;28;48242;-68
2022/10/30 09:29:10;;;;;;;15.83;4.63;;;17.90;58.30;;;;;;4982083;28;46481;-69
2022/10/30 09:31:36;;;;;;;9.43;3.70;;;17.80;58.90;;;;;;4981485;28;46436;-67
2022/10/30 09:34:02;;;;;;;21.10;4.23;;;17.80;59.60;;;;;;4966099;28;46409;-68
2022/10/30 09:36:27;;;;;;;15.17;4.07;;;17.80;59.40;;;;;;4982934;28;47316;-68
2022/10/30 09:38:54;;;;;;;11.87;3.50;;;17.80;59.50;;;;;;4964181;28;46331;-68
2022/10/30 09:41:53;;;;;;;17.97;4.27;;;17.90;57.90;;;;;;4966558;28;45917;-68
2022/10/30 09:44:19;;;;;;;14.20;4.57;;;17.90;59.00;;;;;;4980530;28;46550;-69
2022/10/30 09:47:02;;;;;;;16.03;3.70;;;18.00;59.00;;;;;;4983124;28;47457;-68
2022/10/30 09:49:53;;;;;;;10.77;3.90;;;18.10;59.10;;;;;;4981004;28;46788;-68
2022/10/30 09:52:31;;;;;;;18.23;3.80;;;18.20;59.20;;;;;;4982461;28;46548;-69
2022/10/30 09:55:26;;;;;;;18.93;3.80;;;18.30;58.70;;;;;;4982579;28;46394;-68
2022/10/30 09:58:26;;;;;;;14.80;4.43;;;18.40;58.60;;;;;;4985433;28;47454;-67
2022/10/30 10:01:05;;;;;;;11.90;3.43;;;18.50;56.00;;;;;;4962988;28;46631;-68
2022/10/30 10:04:09;;;;;;;20.37;4.30;;;18.60;56.40;;;;;;4966928;28;46317;-67
2022/10/30 10:06:39;;;;;;;15.40;3.70;;;18.70;55.90;;;;;;4918264;28;46475;-67
2022/10/30 10:09:18;;;;;;;11.03;3.33;;;18.90;55.50;;;;;;4966841;28;48391;-67
2022/10/30 10:11:53;;;;;;;20.30;3.50;;;19.00;54.60;;;;;;4964939;28;45767;-67
2022/10/30 10:14:27;;;;;;;12.00;4.53;;;19.20;54.10;;;;;;4958865;28;46402;-67
2022/10/30 10:16:54;;;;;;;11.80;3.87;;;19.30;53.30;;;;;;4983908;28;45914;-67
2022/10/30 10:19:20;;;;;;;16.87;3.80;;;19.40;52.20;;;;;;4980877;28;48207;-67
2022/10/30 10:21:52;;;;;;;14.00;3.60;;;19.40;52.80;;;;;;4964209;28;46283;-67
2022/10/30 10:24:32;;;;;;;19.43;4.13;;;19.50;52.30;;;;;;4963352;28;45908;-67
2022/10/30 10:27:35;;;;;;;14.30;3.03;;;19.60;51.30;;;;;;4980754;28;46362;-67
2022/10/30 10:30:07;;;;;;;17.20;3.97;;;19.60;51.10;;;;;;4981243;28;46406;-67
2022/10/30 10:32:39;;;;;;;17.70;3.80;;;19.80;51.30;;;;;;4982261;28;46241;-67
2022/10/30 10:35:35;;;;;;;17.47;3.80;;;19.90;50.70;;;;;;4965921;28;46437;-67
2022/10/30 10:38:20;;;;;;;19.33;2.93;;;20.00;49.60;;;;;;4965334;28;46622;-67
2022/10/30 10:41:07;;;;;;;15.33;3.20;;;20.10;49.20;;;;;;4966873;28;48866;-67
2022/10/30 10:44:07;;;;;;;13.83;3.40;;;20.20;48.40;;;;;;4964184;28;46382;-67
2022/10/30 10:46:38;;;;;;;18.23;3.93;;;20.20;47.80;;;;;;4981897;28;46383;-67
2022/10/30 10:49:33;;;;;;;15.37;3.43;;;20.20;47.80;;;;;;4964514;28;46195;-67
2022/10/30 10:52:07;;;;;;;10.70;3.03;;;20.30;48.10;;;;;;4897907;28;47557;-67
2022/10/30 10:54:36;;;;;;;17.70;4.13;;;20.30;47.80;;;;;;4982352;28;46452;-67
2022/10/30 10:57:05;;;;;;;19.63;3.60;;;20.30;46.90;;;;;;4980912;28;46354;-67
2022/10/30 10:59:30;;;;;;;15.47;4.00;;;20.50;46.30;;;;;;4963365;28;46353;-67
2022/10/30 11:02:40;;;;;;;10.60;3.50;;;20.50;45.90;;;;;;4980978;28;46767;-67
2022/10/30 11:05:24;;;;;;;12.67;3.20;;;20.70;43.40;;;;;;4962539;28;46509;-67
2022/10/30 11:07:52;;;;;;;17.80;3.57;;;20.80;42.90;;;;;;4966018;28;46250;-67
2022/10/30 11:10:19;;;;;;;15.70;3.20;;;20.70;42.10;;;;;;4961351;28;46006;-67
2022/10/30 11:12:45;;;;;;;18.70;3.40;;;20.70;43.10;;;;;;4979913;28;46542;-67
2022/10/30 11:15:26;;;;;;;15.13;3.63;;;20.80;42.80;;;;;;4962497;28;46489;-67
2022/10/30 11:18:04;;;;;;;15.90;3.40;;;20.80;41.80;;;;;;4956633;28;46456;-67
2022/10/30 11:21:15;;;;;;;16.53;3.00;;;21.00;40.40;;;;;;4963367;28;46455;-67
2022/10/30 11:23:46;;;;;;;9.20;2.83;;;21.00;40.40;;;;;;4913207;28;49299;-67
2022/10/30 11:26:21;;;;;;;18.40;2.97;;;21.00;40.60;;;;;;4979795;28;46278;-68
2022/10/30 11:28:59;;;;;;;21.40;3.40;;;20.90;40.50;;;;;;4962183;28;46289;-67
2022/10/30 11:31:36;;;;;;;14.93;3.67;;;20.90;39.40;;;;;;4960759;28;46443;-67
2022/10/30 11:34:17;;;;;;;8.50;2.90;;;20.90;40.70;;;;;;4962355;28;46568;-67
2022/10/30 11:36:48;;;;;;;8.90;2.97;;;20.90;40.10;;;;;;4962894;28;46435;-67
2022/10/30 11:39:22;;;;;;;12.20;2.80;;;20.90;39.50;;;;;;4963419;28;46877;-67
2022/10/30 11:42:06;;;;;;;11.67;2.90;;;20.90;40.20;;;;;;4977316;28;46383;-67
2022/10/30 11:44:50;;;;;;;13.80;4.57;;;21.00;39.80;;;;;;4980628;28;47995;-67
2022/10/30 11:47:21;;;;;;;13.03;3.00;;;21.10;38.80;;;;;;4962448;28;46349;-67
2022/10/30 11:50:03;;;;;;;12.67;2.70;;;21.20;38.90;;;;;;4964691;28;46454;-67
2022/10/30 11:52:36;;;;;;;14.93;3.30;;;21.30;37.90;;;;;;4960135;28;46489;-67
2022/10/30 11:55:10;;;;;;;18.00;3.47;;;21.40;37.10;;;;;;4964785;28;47784;-67
2022/10/30 11:57:42;;;;;;;20.93;2.80;;;21.40;36.70;;;;;;4964194;28;46357;-67
2022/10/30 12:00:34;;;;;;;12.80;3.93;;;21.40;35.40;;;;;;4964850;28;46381;-67
2022/10/30 12:03:00;;;;;;;7.33;2.70;;;21.40;36.30;;;;;;4963448;28;46547;-67
2022/10/30 12:05:26;;;;;;;18.77;3.30;;;21.40;35.30;;;;;;4979458;28;48079;-67
2022/10/30 12:07:54;;;;;;;18.20;3.77;;;21.50;35.40;;;;;;4963946;28;46299;-67
2022/10/30 12:10:24;;;;;;;11.87;2.90;;;21.60;35.50;;;;;;4958420;28;46518;-67
2022/10/30 12:12:50;;;;;;;12.70;3.50;;;21.60;35.10;;;;;;4965339;28;46512;-67
2022/10/30 12:15:23;;;;;;;14.47;3.27;;;21.60;34.10;;;;;;4981519;28;46493;-67
2022/10/30 12:17:54;;;;;;;14.90;3.40;;;21.70;34.80;;;;;;4965923;28;46464;-67
2022/10/30 12:20:20;;;;;;;25.70;3.57;;;21.70;31.90;;;;;;4965703;28;46370;-67
2022/10/30 12:22:46;;;;;;;16.73;3.03;;;21.70;33.30;;;;;;4965831;28;46330;-68
2022/10/30 12:25:29;;;;;;;13.10;3.03;;;21.70;32.90;;;;;;4981253;28;46480;-67
2022/10/30 12:28:16;;;;;;;9.33;2.90;;;21.70;32.80;;;;;;4981067;28;46499;-67
2022/10/30 12:31:02;;;;;;;19.80;3.53;;;21.70;33.10;;;;;;4959214;28;46044;-67
2022/10/30 12:33:41;;;;;;;21.33;3.70;;;21.70;33.50;;;;;;4958992;28;46380;-67
2022/10/30 12:36:20;;;;;;;21.90;3.63;;;21.70;34.00;;;;;;4983345;28;46383;-67
2022/10/30 12:38:57;;;;;;;14.93;3.33;;;21.70;33.60;;;;;;4965419;28;46805;-67
2022/10/30 12:41:34;;;;;;;11.60;3.00;;;21.80;32.90;;;;;;4982711;28;46439;-67
2022/10/30 12:44:20;;;;;;;30.37;12.07;;;21.80;34.40;;;;;;4980191;28;46497;-67
2022/10/30 12:46:59;;;;;;;17.57;3.47;;;21.80;34.70;;;;;;4964898;28;46453;-67
2022/10/30 12:49:42;;;;;;;16.53;3.27;;;21.80;34.10;;;;;;4959389;28;47156;-67
2022/10/30 12:52:49;;;;;;;18.93;3.50;;;21.80;34.60;;;;;;4956213;28;46430;-67
2022/10/30 12:55:34;;;;;;;20.27;3.00;;;21.80;34.60;;;;;;4864824;29;46123;-67
2022/10/30 12:58:17;;;;;;;17.10;3.60;;;21.70;34.90;;;;;;4976908;28;47852;-67
2022/10/30 13:01:16;;;;;;;20.27;4.13;;;21.70;34.50;;;;;;4966799;28;46513;-67